Time;durP1;ratioP1;P1;durP2;ratioP2;P2;SDS_P1;SDS_P2;PMS_P1;PMS_P2;Temp;Humidity;BMP_temperature;BMP_pressure;BME280_temperature;BME280_humidity;BME280_pressure;Samples;Min_cycle;Max_cycle;Signal;HPM_P1;HPM_P2
2021/01/15 00:01:24;;;;;;;15.35;8.95;;;22.10;28.90;;;;;;6100845;28;83057;-61
2021/01/15 00:04:24;;;;;;;14.63;8.80;;;22.10;28.80;;;;;;6087564;28;80748;-61
2021/01/15 00:07:25;;;;;;;13.23;8.38;;;22.10;28.80;;;;;;6099952;28;80745;-61
2021/01/15 00:10:25;;;;;;;16.25;9.15;;;22.10;28.90;;;;;;6103385;28;80490;-60
2021/01/15 00:13:26;;;;;;;15.27;9.07;;;22.00;28.90;;;;;;6104475;28;81613;-60
2021/01/15 00:16:27;;;;;;;16.00;9.32;;;22.00;28.90;;;;;;6103636;28;80618;-60
2021/01/15 00:19:27;;;;;;;14.75;8.90;;;22.00;29.00;;;;;;6103813;28;80556;-61
2021/01/15 00:22:28;;;;;;;17.73;8.93;;;22.00;29.00;;;;;;6093629;28;80826;-59
2021/01/15 00:25:28;;;;;;;14.10;8.85;;;22.00;28.90;;;;;;6106629;28;80120;-60
2021/01/15 00:28:29;;;;;;;14.93;8.63;;;22.00;29.00;;;;;;6093867;28;81427;-60
2021/01/15 00:31:29;;;;;;;17.85;9.52;;;22.00;29.10;;;;;;6103244;28;81885;-60
2021/01/15 00:34:30;;;;;;;14.80;9.30;;;22.00;29.20;;;;;;6104234;28;82878;-60
2021/01/15 00:37:30;;;;;;;14.60;8.52;;;22.00;29.10;;;;;;6105065;28;80573;-60
2021/01/15 00:40:31;;;;;;;17.10;9.57;;;21.90;29.00;;;;;;6104749;28;81363;-60
2021/01/15 00:43:32;;;;;;;17.58;8.80;;;22.00;28.90;;;;;;6092211;28;87473;-60
2021/01/15 00:46:32;;;;;;;14.82;8.93;;;21.90;29.00;;;;;;6104958;28;80877;-59
2021/01/15 00:49:34;;;;;;;13.30;8.63;;;21.90;29.00;;;;;;6113477;28;82241;-61
2021/01/15 00:52:35;;;;;;;17.17;9.18;;;21.90;28.90;;;;;;6099434;28;82306;-61
2021/01/15 00:55:36;;;;;;;15.80;8.98;;;21.90;28.90;;;;;;6097897;28;83056;-61
2021/01/15 00:58:36;;;;;;;13.35;8.80;;;21.90;28.80;;;;;;6093499;28;81583;-61
2021/01/15 01:01:37;;;;;;;14.27;8.82;;;21.90;28.80;;;;;;6087810;28;83354;-62
2021/01/15 01:04:38;;;;;;;15.63;8.30;;;21.90;28.70;;;;;;6097927;28;82730;-62
2021/01/15 01:07:43;;;;;;;13.50;8.82;;;21.90;28.80;;;;;;6095812;28;81691;-62
2021/01/15 01:10:43;;;;;;;13.35;8.23;;;21.90;28.70;;;;;;6104029;28;80417;-60
2021/01/15 01:13:44;;;;;;;16.17;7.75;;;21.80;28.60;;;;;;6082460;28;80770;-60
2021/01/15 01:16:44;;;;;;;11.35;7.38;;;21.90;28.70;;;;;;6104879;28;81237;-60
2021/01/15 01:19:45;;;;;;;13.48;7.82;;;21.80;28.50;;;;;;6103543;28;80853;-61
2021/01/15 01:22:49;;;;;;;13.48;7.40;;;21.90;28.80;;;;;;6100424;28;81026;-60
2021/01/15 01:25:50;;;;;;;12.80;7.85;;;21.90;28.80;;;;;;6081029;28;81194;-61
2021/01/15 01:28:50;;;;;;;12.30;7.20;;;21.80;28.70;;;;;;6115029;28;81523;-61
2021/01/15 01:31:51;;;;;;;10.13;7.32;;;21.90;28.90;;;;;;6088702;28;86415;-61
2021/01/15 01:34:51;;;;;;;11.95;6.63;;;21.90;28.80;;;;;;6103657;28;81462;-62
2021/01/15 01:37:52;;;;;;;11.60;7.20;;;21.80;28.70;;;;;;6097483;28;80943;-61
2021/01/15 01:40:52;;;;;;;13.20;7.38;;;21.80;28.80;;;;;;6098055;28;80227;-60
2021/01/15 01:43:53;;;;;;;11.90;6.93;;;21.80;28.80;;;;;;6102613;28;80625;-60
2021/01/15 01:46:53;;;;;;;10.40;6.85;;;21.80;29.20;;;;;;6084745;28;81052;-60
2021/01/15 01:49:54;;;;;;;11.88;6.93;;;21.80;28.70;;;;;;6105221;28;80549;-61
2021/01/15 01:52:54;;;;;;;10.73;6.72;;;21.80;28.90;;;;;;6100740;28;80460;-60
2021/01/15 01:55:55;;;;;;;12.32;6.47;;;21.80;28.90;;;;;;6078909;28;82532;-61
2021/01/15 01:58:55;;;;;;;12.68;6.50;;;21.80;28.90;;;;;;6097255;28;81759;-60
2021/01/15 02:01:56;;;;;;;10.00;6.13;;;21.70;28.80;;;;;;6091512;28;81482;-61
2021/01/15 02:04:57;;;;;;;8.23;5.60;;;21.70;28.90;;;;;;6106890;28;83789;-61
2021/01/15 02:07:57;;;;;;;8.20;5.88;;;21.70;29.10;;;;;;6102945;28;80721;-61
2021/01/15 02:10:58;;;;;;;8.02;5.63;;;21.80;28.90;;;;;;6100788;28;80499;-61
2021/01/15 02:13:58;;;;;;;8.32;5.30;;;21.70;29.00;;;;;;6101971;28;80560;-61
2021/01/15 02:16:59;;;;;;;8.85;5.40;;;21.70;28.90;;;;;;6089184;28;80982;-60
2021/01/15 02:19:59;;;;;;;9.30;5.43;;;21.70;28.90;;;;;;6100782;28;81621;-61
2021/01/15 02:23:00;;;;;;;9.98;6.43;;;21.70;28.90;;;;;;6096008;28;80576;-60
2021/01/15 02:26:01;;;;;;;8.38;5.32;;;21.60;28.90;;;;;;6103256;28;80743;-61
2021/01/15 02:29:01;;;;;;;9.63;5.72;;;21.70;28.80;;;;;;6100961;28;80904;-60
2021/01/15 02:32:02;;;;;;;6.95;4.85;;;21.70;29.00;;;;;;6103640;28;80980;-61
2021/01/15 02:35:02;;;;;;;8.57;5.32;;;21.60;28.90;;;;;;6101320;28;80384;-61
2021/01/15 02:38:03;;;;;;;7.43;5.03;;;21.70;29.00;;;;;;6102938;28;80794;-61
2021/01/15 02:41:03;;;;;;;10.10;5.28;;;21.70;28.90;;;;;;6103336;28;81408;-61
2021/01/15 02:44:04;;;;;;;6.10;4.55;;;21.70;28.90;;;;;;6094697;28;80291;-61
2021/01/15 02:47:06;;;;;;;7.97;4.70;;;21.70;28.90;;;;;;6096898;28;81085;-60
2021/01/15 02:50:07;;;;;;;8.65;5.03;;;21.70;28.80;;;;;;6098312;28;80456;-60
2021/01/15 02:53:07;;;;;;;7.85;4.38;;;21.70;29.10;;;;;;6100491;28;81382;-61
2021/01/15 02:56:08;;;;;;;7.07;4.75;;;21.70;29.10;;;;;;6101760;28;80619;-61
2021/01/15 02:59:08;;;;;;;10.02;5.45;;;21.60;28.90;;;;;;6104181;28;81006;-60
2021/01/15 03:02:09;;;;;;;6.75;4.80;;;21.70;28.90;;;;;;6097696;28;80520;-61
2021/01/15 03:05:10;;;;;;;8.45;4.88;;;21.70;28.60;;;;;;6113819;28;83222;-61
2021/01/15 03:08:10;;;;;;;8.32;4.85;;;21.70;28.70;;;;;;6098397;28;80622;-61
2021/01/15 03:11:11;;;;;;;7.63;5.35;;;21.70;28.50;;;;;;6094755;28;80666;-61
2021/01/15 03:14:11;;;;;;;8.20;4.78;;;21.70;28.70;;;;;;6097266;28;80746;-61
2021/01/15 03:17:12;;;;;;;8.00;4.90;;;21.70;28.70;;;;;;6098300;28;80695;-61
2021/01/15 03:20:13;;;;;;;7.45;4.78;;;21.70;28.80;;;;;;6101307;28;80614;-61
2021/01/15 03:23:13;;;;;;;8.73;4.82;;;21.70;28.70;;;;;;6100271;28;83165;-59
2021/01/15 03:26:14;;;;;;;7.60;4.90;;;21.70;28.80;;;;;;6103338;28;80869;-61
2021/01/15 03:29:14;;;;;;;8.88;5.20;;;21.70;28.80;;;;;;6102147;28;81516;-60
2021/01/15 03:32:15;;;;;;;10.40;5.55;;;21.70;29.10;;;;;;6102433;28;81000;-61
2021/01/15 03:35:25;;;;;;;9.70;5.47;;;21.70;29.00;;;;;;6093216;28;80742;-61
2021/01/15 03:38:25;;;;;;;9.85;4.90;;;21.70;28.80;;;;;;6097422;28;83656;-61
2021/01/15 03:41:26;;;;;;;13.38;6.45;;;21.60;29.30;;;;;;6099948;28;90476;-61
2021/01/15 03:44:26;;;;;;;10.85;5.70;;;21.70;28.90;;;;;;6103061;28;80856;-60
2021/01/15 03:47:27;;;;;;;10.85;5.88;;;21.70;29.20;;;;;;6095909;28;80582;-60
2021/01/15 03:50:27;;;;;;;9.88;6.22;;;21.60;29.10;;;;;;6098040;28;83005;-60
2021/01/15 03:53:28;;;;;;;7.95;5.38;;;21.60;29.10;;;;;;6088744;28;80555;-60
2021/01/15 03:56:28;;;;;;;8.85;5.68;;;21.70;29.10;;;;;;6101516;28;80786;-59
2021/01/15 03:59:29;;;;;;;10.25;5.82;;;21.70;29.00;;;;;;6093181;28;80617;-60
2021/01/15 04:02:29;;;;;;;9.05;5.90;;;21.60;29.00;;;;;;6100010;28;81563;-60
2021/01/15 04:05:30;;;;;;;9.40;5.75;;;21.60;29.20;;;;;;6099019;28;80625;-61
2021/01/15 04:08:30;;;;;;;9.18;6.25;;;21.60;29.30;;;;;;6101310;28;80426;-61
2021/01/15 04:11:31;;;;;;;11.30;5.97;;;21.60;29.10;;;;;;6102290;28;81217;-61
2021/01/15 04:14:31;;;;;;;9.80;5.25;;;21.60;29.20;;;;;;6117919;28;81674;-60
2021/01/15 04:17:32;;;;;;;9.43;5.18;;;21.60;29.10;;;;;;6094326;28;80881;-60
2021/01/15 04:20:33;;;;;;;9.25;6.32;;;21.60;29.00;;;;;;6104999;28;81273;-61
2021/01/15 04:23:33;;;;;;;11.68;6.68;;;21.70;28.70;;;;;;6096581;28;80615;-61
2021/01/15 04:26:34;;;;;;;10.38;6.10;;;21.80;28.50;;;;;;6104978;28;80213;-61
2021/01/15 04:29:34;;;;;;;9.85;5.80;;;21.70;28.20;;;;;;6102701;28;80790;-61
2021/01/15 04:32:35;;;;;;;10.30;6.50;;;21.80;28.10;;;;;;6105178;28;80688;-61
2021/01/15 04:35:35;;;;;;;12.65;6.47;;;21.80;28.00;;;;;;6104317;28;80328;-61
2021/01/15 04:38:36;;;;;;;11.63;6.75;;;21.90;27.90;;;;;;6099709;28;80915;-60
2021/01/15 04:41:36;;;;;;;11.15;6.88;;;21.90;27.90;;;;;;6099800;28;81619;-61
2021/01/15 04:44:37;;;;;;;11.25;6.53;;;22.00;27.90;;;;;;6100270;28;79998;-60
2021/01/15 04:47:38;;;;;;;13.52;6.82;;;22.00;27.90;;;;;;6104544;28;82238;-61
2021/01/15 04:50:38;;;;;;;12.48;6.85;;;22.00;27.90;;;;;;6103354;28;80671;-61
2021/01/15 04:53:39;;;;;;;13.68;7.68;;;22.10;27.90;;;;;;6103474;28;80728;-61
2021/01/15 04:56:39;;;;;;;10.85;6.82;;;22.10;27.80;;;;;;6104064;28;80882;-61
2021/01/15 04:59:40;;;;;;;12.45;7.22;;;22.10;27.90;;;;;;6101564;28;80825;-61
2021/01/15 05:02:40;;;;;;;12.25;6.78;;;22.20;27.80;;;;;;6098027;28;81333;-60
2021/01/15 05:05:41;;;;;;;11.07;6.82;;;22.10;27.90;;;;;;6104537;28;83436;-60
2021/01/15 05:08:41;;;;;;;13.60;7.47;;;22.10;27.70;;;;;;6099383;28;80287;-60
2021/01/15 05:11:42;;;;;;;15.88;7.50;;;22.10;27.70;;;;;;6107397;28;80676;-60
2021/01/15 05:14:42;;;;;;;14.30;7.85;;;22.20;27.90;;;;;;6103420;28;80518;-60
2021/01/15 05:17:43;;;;;;;12.85;7.85;;;22.20;27.70;;;;;;6104205;28;80250;-60
2021/01/15 05:20:43;;;;;;;12.50;7.05;;;22.20;27.80;;;;;;6094614;28;80873;-63
2021/01/15 05:23:44;;;;;;;13.07;7.65;;;22.20;27.90;;;;;;6102973;28;80882;-60
2021/01/15 05:26:45;;;;;;;13.57;7.85;;;22.20;27.70;;;;;;6102489;28;81129;-61
2021/01/15 05:29:45;;;;;;;12.07;7.72;;;22.30;28.00;;;;;;6104542;28;80565;-63
2021/01/15 05:32:46;;;;;;;14.07;8.00;;;22.30;27.80;;;;;;6101820;28;80471;-64
2021/01/15 05:35:46;;;;;;;12.18;8.00;;;22.30;27.70;;;;;;6098690;28;81024;-64
2021/01/15 05:38:47;;;;;;;12.18;7.35;;;22.30;28.10;;;;;;6098888;28;82490;-65
2021/01/15 05:41:47;;;;;;;15.02;8.10;;;22.30;28.70;;;;;;6104042;28;80508;-65
2021/01/15 05:44:48;;;;;;;15.00;8.98;;;22.40;28.30;;;;;;6087109;28;82363;-62
2021/01/15 05:47:48;;;;;;;12.30;7.50;;;22.40;28.10;;;;;;6101801;28;81118;-65
2021/01/15 05:50:49;;;;;;;15.05;8.05;;;22.50;28.50;;;;;;6095749;28;81272;-67
2021/01/15 05:53:49;;;;;;;15.45;7.88;;;22.50;28.90;;;;;;6101188;28;80438;-63
2021/01/15 05:56:50;;;;;;;14.02;7.40;;;22.60;29.40;;;;;;6094534;28;81726;-65
2021/01/15 05:59:53;;;;;;;11.65;7.32;;;22.70;29.70;;;;;;6102199;28;80845;-65
2021/01/15 06:02:54;;;;;;;15.73;7.90;;;22.70;30.00;;;;;;6100836;28;80929;-66
2021/01/15 06:05:54;;;;;;;12.23;7.82;;;22.70;30.00;;;;;;6102130;28;81168;-68
2021/01/15 06:08:55;;;;;;;15.23;8.57;;;22.60;30.10;;;;;;6102123;28;80707;-72
2021/01/15 06:11:55;;;;;;;12.48;7.20;;;22.60;31.10;;;;;;6103904;28;80963;-73
2021/01/15 06:14:58;;;;;;;15.18;7.57;;;22.60;30.70;;;;;;6098439;28;82547;-64
2021/01/15 06:17:59;;;;;;;13.00;6.72;;;22.60;30.70;;;;;;6102239;28;80784;-63
2021/01/15 06:20:59;;;;;;;16.40;7.90;;;22.60;30.00;;;;;;6100466;28;83112;-63
2021/01/15 06:24:00;;;;;;;14.00;7.57;;;22.60;31.60;;;;;;6103600;28;81082;-64
2021/01/15 06:27:00;;;;;;;12.88;6.68;;;22.60;30.20;;;;;;6099572;28;80647;-70
2021/01/15 06:30:01;;;;;;;13.95;6.47;;;22.60;31.40;;;;;;6096295;28;80945;-63
2021/01/15 06:33:01;;;;;;;13.32;6.97;;;22.60;32.30;;;;;;6102448;28;81618;-64
2021/01/15 06:36:04;;;;;;;12.65;7.10;;;22.60;32.30;;;;;;6101517;28;84675;-64
2021/01/15 06:39:05;;;;;;;13.65;7.72;;;22.60;30.60;;;;;;6112420;28;80801;-63
2021/01/15 06:42:05;;;;;;;16.15;7.80;;;22.60;29.60;;;;;;6102756;28;80773;-63
2021/01/15 06:45:13;;;;;;;14.70;7.55;;;22.60;30.60;;;;;;6101101;28;81200;-61
2021/01/15 06:48:14;;;;;;;16.33;7.45;;;22.50;31.20;;;;;;6100520;28;81291;-64
2021/01/15 06:51:14;;;;;;;10.13;6.25;;;22.40;31.40;;;;;;6100808;28;81627;-63
2021/01/15 06:54:17;;;;;;;10.52;6.63;;;22.30;31.30;;;;;;6097892;28;80625;-64
2021/01/15 06:57:18;;;;;;;13.02;7.53;;;22.30;31.40;;;;;;6092233;28;80917;-65
2021/01/15 07:00:20;;;;;;;12.15;6.70;;;22.30;31.50;;;;;;6101207;28;80652;-64
2021/01/15 07:03:22;;;;;;;12.50;7.18;;;22.30;31.60;;;;;;6101268;28;80673;-64
2021/01/15 07:06:23;;;;;;;10.57;5.78;;;22.30;31.70;;;;;;6090100;28;81421;-64
2021/01/15 07:09:23;;;;;;;11.23;7.03;;;22.20;31.70;;;;;;6102581;28;81664;-63
2021/01/15 07:12:24;;;;;;;13.35;7.40;;;22.20;32.00;;;;;;6101575;28;80389;-74
2021/01/15 07:15:25;;;;;;;12.13;6.85;;;22.20;32.10;;;;;;6096564;28;80490;-62
2021/01/15 07:18:25;;;;;;;10.18;6.38;;;22.20;31.90;;;;;;6098250;28;80729;-66
2021/01/15 07:21:26;;;;;;;10.55;6.90;;;22.10;32.50;;;;;;6092531;28;80574;-65
2021/01/15 07:24:26;;;;;;;12.90;7.15;;;22.10;32.50;;;;;;6101445;28;81195;-63
2021/01/15 07:27:27;;;;;;;10.75;6.38;;;22.10;32.40;;;;;;6103954;28;81335;-63
2021/01/15 07:30:27;;;;;;;13.65;6.28;;;22.10;32.80;;;;;;6095957;28;84985;-64
2021/01/15 07:33:28;;;;;;;11.95;6.65;;;22.10;32.90;;;;;;6102525;28;82802;-63
2021/01/15 07:36:28;;;;;;;8.60;5.55;;;22.10;33.60;;;;;;6097897;28;83896;-65
2021/01/15 07:39:29;;;;;;;18.48;7.80;;;22.00;33.30;;;;;;6087819;28;86326;-64
2021/01/15 07:42:29;;;;;;;124.72;29.23;;;22.00;34.30;;;;;;6097064;28;81403;-66
2021/01/15 07:45:33;;;;;;;137.65;34.13;;;22.00;35.40;;;;;;6102430;28;83067;-66
2021/01/15 07:48:34;;;;;;;113.03;32.20;;;22.00;37.20;;;;;;6097629;28;83589;-62
2021/01/15 07:51:34;;;;;;;109.38;29.65;;;22.00;37.80;;;;;;6103266;28;84049;-64
2021/01/15 07:54:35;;;;;;;91.90;25.40;;;22.00;38.30;;;;;;6102455;28;84259;-64
2021/01/15 07:57:35;;;;;;;83.60;24.58;;;22.00;38.50;;;;;;6098392;28;83425;-64
2021/01/15 08:00:36;;;;;;;87.15;22.10;;;22.10;38.90;;;;;;6099551;28;83952;-63
2021/01/15 08:03:36;;;;;;;77.57;21.00;;;22.10;39.30;;;;;;6099076;28;83532;-61
2021/01/15 08:06:38;;;;;;;63.20;18.40;;;22.10;39.30;;;;;;6110150;28;83321;-61
2021/01/15 08:09:38;;;;;;;61.00;17.30;;;22.10;39.90;;;;;;6098359;28;83792;-62
2021/01/15 08:12:40;;;;;;;52.65;16.50;;;22.10;39.10;;;;;;6101465;28;83182;-62
2021/01/15 08:15:40;;;;;;;58.65;16.50;;;22.10;39.20;;;;;;6103481;28;83492;-63
2021/01/15 08:18:41;;;;;;;48.33;15.25;;;22.10;38.90;;;;;;6097789;28;83347;-68
2021/01/15 08:21:42;;;;;;;55.40;16.70;;;22.10;38.80;;;;;;6101783;28;82972;-70
2021/01/15 08:24:42;;;;;;;55.08;16.88;;;22.10;39.40;;;;;;6097583;28;84522;-62
2021/01/15 08:27:45;;;;;;;50.08;14.88;;;22.10;41.00;;;;;;6093298;28;86445;-62
2021/01/15 08:30:45;;;;;;;42.50;13.25;;;22.10;40.70;;;;;;6112720;28;86507;-61
2021/01/15 08:33:46;;;;;;;41.40;12.95;;;22.10;40.00;;;;;;6100588;28;84332;-60
2021/01/15 08:36:47;;;;;;;43.47;12.88;;;22.10;39.30;;;;;;6090570;28;83557;-61
2021/01/15 08:39:47;;;;;;;32.92;11.80;;;22.10;40.00;;;;;;6100228;28;83796;-62
2021/01/15 08:42:48;;;;;;;32.20;11.05;;;22.10;39.30;;;;;;6098837;28;83177;-62
2021/01/15 08:45:48;;;;;;;35.60;11.55;;;22.10;38.60;;;;;;6100237;28;83109;-62
2021/01/15 08:48:49;;;;;;;27.58;10.82;;;22.10;38.20;;;;;;6097205;28;83366;-63
2021/01/15 08:51:50;;;;;;;29.90;9.43;;;22.10;37.80;;;;;;6094488;28;83568;-62
2021/01/15 08:54:50;;;;;;;22.35;9.15;;;22.10;37.60;;;;;;6097998;28;82007;-62
2021/01/15 08:57:51;;;;;;;25.55;8.73;;;22.10;37.10;;;;;;6101854;28;80450;-62
2021/01/15 09:00:51;;;;;;;26.20;9.20;;;22.10;36.80;;;;;;6118201;28;82641;-62
2021/01/15 09:03:52;;;;;;;24.38;9.88;;;22.10;36.60;;;;;;6102040;28;80682;-62
2021/01/15 09:06:52;;;;;;;24.88;8.60;;;22.10;36.60;;;;;;6102537;28;80478;-62
2021/01/15 09:09:53;;;;;;;18.52;7.50;;;22.20;36.60;;;;;;6102187;28;84755;-61
2021/01/15 09:12:53;;;;;;;20.02;8.32;;;22.20;35.70;;;;;;6092188;28;81136;-62
2021/01/15 09:15:56;;;;;;;15.43;7.75;;;22.30;34.80;;;;;;6079871;28;82786;-63
2021/01/15 09:18:56;;;;;;;14.57;6.53;;;22.40;33.70;;;;;;6102411;28;80279;-63
2021/01/15 09:22:00;;;;;;;18.83;6.55;;;22.50;33.10;;;;;;6099119;28;80507;-63
2021/01/15 09:25:00;;;;;;;14.27;6.88;;;22.50;32.40;;;;;;6104341;28;81040;-62
2021/01/15 09:28:01;;;;;;;14.82;7.10;;;22.50;31.90;;;;;;6097510;28;81807;-62
2021/01/15 09:31:02;;;;;;;19.83;7.03;;;22.50;31.90;;;;;;6102554;28;80504;-62
2021/01/15 09:34:03;;;;;;;11.98;6.30;;;22.60;31.20;;;;;;6102356;28;81436;-61
2021/01/15 09:37:03;;;;;;;12.27;5.68;;;22.60;30.90;;;;;;6104781;28;80752;-64
2021/01/15 09:40:04;;;;;;;13.20;6.35;;;22.70;30.40;;;;;;6077138;28;80758;-60
2021/01/15 09:43:04;;;;;;;13.27;6.07;;;22.70;30.40;;;;;;6097242;28;80681;-62
2021/01/15 09:46:05;;;;;;;12.80;6.18;;;22.70;30.50;;;;;;6103226;28;80753;-63
2021/01/15 09:49:05;;;;;;;11.90;5.82;;;22.80;29.70;;;;;;6096362;28;80801;-61
2021/01/15 09:52:07;;;;;;;12.73;5.53;;;22.70;29.50;;;;;;6090301;28;82954;-62
2021/01/15 09:55:07;;;;;;;13.18;6.32;;;22.80;28.90;;;;;;6093435;28;81026;-62
2021/01/15 09:58:08;;;;;;;11.07;5.57;;;22.80;29.30;;;;;;6097930;28;80595;-63
2021/01/15 10:01:08;;;;;;;12.00;6.18;;;22.90;29.10;;;;;;6098556;28;80655;-62
2021/01/15 10:04:09;;;;;;;12.07;6.07;;;22.90;28.90;;;;;;6102465;28;80709;-62
2021/01/15 10:07:09;;;;;;;13.70;6.15;;;22.90;29.20;;;;;;6100887;28;80511;-63
2021/01/15 10:10:11;;;;;;;10.75;5.47;;;22.90;29.40;;;;;;6086196;28;80543;-62
2021/01/15 10:13:12;;;;;;;11.20;5.97;;;22.90;28.80;;;;;;6095809;28;80792;-62
2021/01/15 10:16:12;;;;;;;12.75;6.00;;;22.90;29.20;;;;;;6096263;28;81880;-63
2021/01/15 10:19:13;;;;;;;11.93;6.55;;;22.90;29.00;;;;;;6089029;28;80659;-62
2021/01/15 10:22:13;;;;;;;12.43;6.53;;;22.90;28.00;;;;;;6099664;28;80738;-60
2021/01/15 10:25:14;;;;;;;10.27;5.30;;;22.80;27.90;;;;;;6089266;28;83135;-63
2021/01/15 10:28:14;;;;;;;9.52;5.30;;;22.80;27.70;;;;;;6102000;28;80457;-64
2021/01/15 10:31:15;;;;;;;9.10;5.25;;;22.70;27.90;;;;;;6097926;28;81103;-65
2021/01/15 10:34:15;;;;;;;11.90;5.97;;;22.70;28.00;;;;;;6102017;28;81389;-62
2021/01/15 10:37:16;;;;;;;9.73;5.45;;;22.60;27.50;;;;;;6097038;28;81281;-63
2021/01/15 10:40:16;;;;;;;9.90;5.55;;;22.70;27.30;;;;;;6101629;28;80918;-64
2021/01/15 10:43:17;;;;;;;11.07;5.72;;;22.70;26.90;;;;;;6100848;28;80264;-64
2021/01/15 10:46:17;;;;;;;10.60;6.00;;;22.80;27.10;;;;;;6094143;28;80734;-63
2021/01/15 10:49:18;;;;;;;12.77;6.43;;;22.80;26.70;;;;;;6099838;28;80671;-61
2021/01/15 10:52:18;;;;;;;12.55;6.90;;;22.90;26.70;;;;;;6093987;28;80408;-62
2021/01/15 10:55:19;;;;;;;9.70;5.57;;;23.00;26.60;;;;;;6096977;28;80666;-65
2021/01/15 10:58:19;;;;;;;11.43;5.40;;;23.10;26.70;;;;;;6092527;28;81713;-63
2021/01/15 11:01:20;;;;;;;9.55;6.07;;;23.20;26.40;;;;;;6095247;28;81242;-61
2021/01/15 11:04:21;;;;;;;8.57;5.13;;;23.30;26.50;;;;;;6089902;28;81157;-60
2021/01/15 11:07:21;;;;;;;12.48;5.05;;;23.40;27.40;;;;;;6090435;28;83569;-63
2021/01/15 11:10:22;;;;;;;9.48;5.50;;;23.40;27.20;;;;;;6096964;28;81878;-62
2021/01/15 11:13:22;;;;;;;10.32;5.43;;;23.50;27.50;;;;;;6100159;28;80280;-61
2021/01/15 11:16:23;;;;;;;8.27;4.90;;;23.60;27.50;;;;;;6101198;28;81541;-61
2021/01/15 11:19:23;;;;;;;9.82;5.25;;;23.70;27.70;;;;;;6093759;28;80242;-62
2021/01/15 11:22:24;;;;;;;8.52;5.50;;;23.70;27.30;;;;;;6099323;28;80797;-62
2021/01/15 11:25:24;;;;;;;9.88;5.57;;;23.80;27.20;;;;;;6105989;28;83490;-61
2021/01/15 11:28:25;;;;;;;8.93;5.30;;;23.80;27.20;;;;;;6074041;28;81525;-61
2021/01/15 11:31:25;;;;;;;7.20;4.80;;;23.80;27.40;;;;;;6096225;28;80709;-62
2021/01/15 11:34:26;;;;;;;8.25;4.82;;;23.90;27.30;;;;;;6100641;28;80819;-62
2021/01/15 11:37:27;;;;;;;11.65;5.32;;;23.90;27.40;;;;;;6091826;28;80597;-62
2021/01/15 11:40:28;;;;;;;14.55;5.53;;;23.80;27.20;;;;;;6075291;28;81075;-60
2021/01/15 11:43:28;;;;;;;9.05;4.85;;;23.70;26.80;;;;;;6099414;28;80437;-60
2021/01/15 11:46:29;;;;;;;10.27;5.20;;;23.60;26.70;;;;;;6084811;28;80422;-62
2021/01/15 11:49:29;;;;;;;10.88;6.10;;;23.50;26.80;;;;;;6103333;28;81059;-62
2021/01/15 11:52:30;;;;;;;11.15;5.65;;;23.50;26.40;;;;;;6092972;28;80974;-62
2021/01/15 11:55:30;;;;;;;10.95;5.75;;;23.40;26.10;;;;;;6095394;28;81636;-62
2021/01/15 11:58:31;;;;;;;12.50;5.30;;;23.30;26.20;;;;;;6090882;28;81989;-62
2021/01/15 12:01:31;;;;;;;11.57;5.65;;;23.30;26.30;;;;;;6101361;28;80894;-62
2021/01/15 12:04:32;;;;;;;9.75;5.57;;;23.30;25.90;;;;;;6097538;28;82001;-62
2021/01/15 12:07:33;;;;;;;15.45;8.85;;;23.20;25.70;;;;;;6090059;28;80819;-63
2021/01/15 12:10:33;;;;;;;17.33;11.48;;;23.30;25.80;;;;;;6091232;28;81197;-64
2021/01/15 12:13:34;;;;;;;17.20;11.23;;;23.20;25.60;;;;;;6095188;28;83751;-62
2021/01/15 12:16:35;;;;;;;18.35;10.57;;;23.20;25.60;;;;;;6091093;28;85004;-61
2021/01/15 12:19:35;;;;;;;16.20;9.93;;;23.20;26.00;;;;;;6093875;28;83713;-62
2021/01/15 12:22:36;;;;;;;15.02;9.40;;;23.20;25.60;;;;;;6095202;28;84226;-62
2021/01/15 12:25:38;;;;;;;15.02;9.75;;;23.20;25.80;;;;;;6092442;28;81148;-61
2021/01/15 12:28:39;;;;;;;14.60;9.00;;;23.20;25.30;;;;;;6097735;28;80606;-61
2021/01/15 12:31:40;;;;;;;15.50;8.82;;;23.20;25.30;;;;;;6098302;28;80508;-62
2021/01/15 12:34:40;;;;;;;11.20;7.57;;;23.10;25.40;;;;;;6077291;28;81986;-63
2021/01/15 12:37:41;;;;;;;10.77;7.43;;;23.10;25.40;;;;;;6100819;28;80894;-62
2021/01/15 12:40:41;;;;;;;13.38;6.82;;;23.10;25.30;;;;;;6090241;28;81872;-62
2021/01/15 12:43:42;;;;;;;12.90;6.85;;;23.10;25.00;;;;;;6093496;28;80750;-61
2021/01/15 12:46:42;;;;;;;11.25;6.68;;;23.20;25.00;;;;;;6095791;28;80627;-62
2021/01/15 12:49:43;;;;;;;12.95;7.07;;;23.20;24.80;;;;;;6094295;28;81552;-61
2021/01/15 12:52:43;;;;;;;11.75;5.95;;;23.20;25.40;;;;;;6094496;28;80965;-61
2021/01/15 12:55:44;;;;;;;10.60;6.05;;;23.10;25.00;;;;;;6095233;28;80857;-61
2021/01/15 12:58:44;;;;;;;12.82;7.15;;;23.10;24.70;;;;;;6078515;28;80429;-61
2021/01/15 13:01:45;;;;;;;9.13;5.45;;;23.10;24.80;;;;;;6103782;28;80534;-62
2021/01/15 13:04:46;;;;;;;11.60;5.93;;;23.00;24.80;;;;;;6067619;28;81525;-62
2021/01/15 13:07:46;;;;;;;10.63;5.85;;;23.00;24.70;;;;;;6099230;28;80989;-62
2021/01/15 13:10:47;;;;;;;8.57;5.60;;;23.00;24.80;;;;;;6098320;28;81484;-63
2021/01/15 13:13:47;;;;;;;9.65;5.72;;;22.90;25.30;;;;;;6102008;28;80246;-62
2021/01/15 13:16:48;;;;;;;17.33;7.05;;;22.90;25.30;;;;;;6102045;28;80520;-63
2021/01/15 13:19:48;;;;;;;10.30;4.95;;;22.80;25.60;;;;;;6101195;28;80492;-62
2021/01/15 13:22:49;;;;;;;10.63;5.57;;;22.80;25.30;;;;;;6101032;28;80628;-62
2021/01/15 13:25:49;;;;;;;7.93;5.10;;;22.80;25.50;;;;;;6093008;28;81067;-62
2021/01/15 13:28:50;;;;;;;10.00;5.50;;;22.80;25.50;;;;;;6091563;28;80443;-62
2021/01/15 13:31:50;;;;;;;7.65;5.35;;;22.80;25.50;;;;;;6104288;28;80458;-63
2021/01/15 13:34:51;;;;;;;8.77;5.22;;;22.70;25.50;;;;;;6111900;28;83201;-63
2021/01/15 13:37:51;;;;;;;9.38;5.57;;;22.70;25.50;;;;;;6092597;28;81102;-63
2021/01/15 13:40:52;;;;;;;11.50;5.53;;;22.70;25.30;;;;;;6101669;28;80765;-63
2021/01/15 13:43:52;;;;;;;10.50;5.43;;;22.70;25.90;;;;;;6092340;28;80675;-63
2021/01/15 13:46:53;;;;;;;10.77;5.95;;;22.80;26.00;;;;;;6096200;28;81497;-63
2021/01/15 13:49:54;;;;;;;8.35;4.88;;;22.70;25.60;;;;;;6098042;28;80883;-62
2021/01/15 13:52:54;;;;;;;9.77;5.32;;;22.70;25.40;;;;;;6102800;28;80907;-63
2021/01/15 13:55:55;;;;;;;9.43;4.65;;;22.70;25.40;;;;;;6100142;28;81334;-65
2021/01/15 13:58:55;;;;;;;8.35;4.25;;;22.80;25.50;;;;;;6098019;28;81305;-63
2021/01/15 14:01:56;;;;;;;9.50;5.03;;;22.70;25.60;;;;;;6094634;28;81492;-62
2021/01/15 14:04:56;;;;;;;10.13;4.30;;;22.70;25.20;;;;;;6101558;28;80257;-63
2021/01/15 14:07:57;;;;;;;7.88;4.45;;;22.70;25.50;;;;;;6101977;28;82744;-63
2021/01/15 14:10:57;;;;;;;8.80;4.32;;;22.70;25.20;;;;;;6104161;28;80806;-64
2021/01/15 14:13:58;;;;;;;9.60;4.57;;;22.80;25.20;;;;;;6098542;28;80948;-63
2021/01/15 14:16:58;;;;;;;7.75;3.78;;;22.70;24.90;;;;;;6099594;28;80694;-66
2021/01/15 14:19:59;;;;;;;12.43;4.20;;;22.70;25.60;;;;;;6095306;28;81209;-62
2021/01/15 14:22:59;;;;;;;5.97;3.67;;;22.80;24.90;;;;;;6102516;28;81031;-61
2021/01/15 14:26:00;;;;;;;8.27;3.75;;;22.80;26.00;;;;;;6094159;28;80861;-63
2021/01/15 14:29:00;;;;;;;6.82;3.85;;;22.80;25.70;;;;;;6098440;28;81267;-63
2021/01/15 14:32:01;;;;;;;8.77;4.22;;;22.80;25.60;;;;;;6101875;28;80905;-62
2021/01/15 14:35:01;;;;;;;8.32;4.25;;;22.80;25.60;;;;;;6099041;28;80426;-62
2021/01/15 14:38:02;;;;;;;9.15;4.40;;;22.80;25.60;;;;;;6094225;28;80957;-71
2021/01/15 14:41:03;;;;;;;10.23;4.20;;;22.80;25.70;;;;;;6096132;28;81061;-64
2021/01/15 14:44:04;;;;;;;9.57;4.05;;;22.80;26.00;;;;;;6091215;28;80500;-63
2021/01/15 14:47:06;;;;;;;6.40;3.47;;;22.80;25.80;;;;;;6089022;28;82689;-62
2021/01/15 14:50:06;;;;;;;9.32;4.07;;;22.80;26.20;;;;;;6097770;28;82024;-72
2021/01/15 14:53:07;;;;;;;10.75;4.22;;;22.80;25.90;;;;;;6093227;28;81887;-61
2021/01/15 14:56:07;;;;;;;13.98;4.80;;;22.80;26.60;;;;;;6082099;28;80813;-62
2021/01/15 14:59:10;;;;;;;12.82;4.88;;;22.90;26.90;;;;;;6101710;28;80883;-61
2021/01/15 15:02:10;;;;;;;10.77;4.15;;;22.80;27.10;;;;;;6093194;28;81520;-61
2021/01/15 15:05:11;;;;;;;10.25;4.00;;;22.90;27.70;;;;;;6092575;28;80937;-62
2021/01/15 15:08:11;;;;;;;11.40;4.28;;;22.90;27.40;;;;;;6097568;28;80585;-63
2021/01/15 15:11:12;;;;;;;22.00;5.88;;;22.80;27.30;;;;;;6116147;28;81836;-62
2021/01/15 15:14:12;;;;;;;12.68;5.35;;;22.90;28.20;;;;;;6093957;28;80649;-64
2021/01/15 15:17:13;;;;;;;19.98;6.00;;;22.90;28.90;;;;;;6101728;28;82758;-63
2021/01/15 15:20:14;;;;;;;11.65;5.10;;;22.80;28.70;;;;;;6090743;28;80556;-63
2021/01/15 15:23:14;;;;;;;11.02;5.40;;;22.80;29.90;;;;;;6086083;28;81119;-63
2021/01/15 15:26:15;;;;;;;11.70;5.68;;;22.80;29.30;;;;;;6093819;28;80759;-63
2021/01/15 15:29:17;;;;;;;14.38;6.75;;;22.80;29.00;;;;;;6094492;28;80739;-64